Terminal Aerodrome Forecast
Issued by NWS

Home | Current Version | Previous Version | Text Only | Print | Product List | Glossary On
Versions: 1 2 3 4 5 6 7 8 9 10 11 12 13 14
000
FTUS43 KILX 301000 AAB
TAFBMI
TAF AMD
KBMI 301026Z 3010/0106 06011KT P6SM OVC004
     FM301600 06010KT P6SM SCT006 BKN010
     FM301900 06010KT P6SM BKN020
     FM010000 07009KT P6SM SCT025=

USA.gov is the U.S. government's official web portal to all federal, state and local government web resources and services.